Time;durP1;ratioP1;P1;durP2;ratioP2;P2;SDS_P1;SDS_P2;PMS_P1;PMS_P2;Temp;Humidity;BMP_temperature;BMP_pressure;BME280_temperature;BME280_humidity;BME280_pressure;Samples;Min_cycle;Max_cycle;Signal;HPM_P1;HPM_P2
2023/05/14 00:02:07;;;;;;;17.30;12.80;;;;;;;8.39;69.55;101236.60;104016;277;38248;-72
2023/05/14 00:04:42;;;;;;;20.90;13.20;;;;;;;8.33;69.58;101237.17;103986;277;38390;-72
2023/05/14 00:07:16;;;;;;;19.80;12.00;;;;;;;8.29;69.76;101238.30;104018;277;38495;-71
2023/05/14 00:09:50;;;;;;;22.20;12.50;;;;;;;8.26;70.06;101234.00;104039;276;38551;-72
2023/05/14 00:12:25;;;;;;;21.80;11.90;;;;;;;8.24;70.41;101234.70;104000;277;38656;-70
2023/05/14 00:15:01;;;;;;;21.20;13.10;;;;;;;8.23;70.39;101231.77;104012;265;38393;-72
2023/05/14 00:17:41;;;;;;;17.00;11.50;;;;;;;8.21;70.46;101229.89;103848;277;174851;-70
2023/05/14 00:20:24;;;;;;;19.10;12.00;;;;;;;8.19;70.48;101233.91;103987;277;39488;-71
2023/05/14 00:23:00;;;;;;;20.00;12.70;;;;;;;8.15;70.72;101228.23;104034;277;38232;-71
2023/05/14 00:25:34;;;;;;;19.00;11.80;;;;;;;8.14;70.68;101227.71;103985;277;39725;-71
2023/05/14 00:28:08;;;;;;;19.20;11.20;;;;;;;8.14;70.59;101224.95;104013;277;39241;-69
2023/05/14 00:30:46;;;;;;;17.30;12.30;;;;;;;8.10;70.71;101225.36;104044;277;38263;-70
2023/05/14 00:33:20;;;;;;;17.90;11.60;;;;;;;8.06;70.78;101225.59;104056;276;39708;-72
2023/05/14 00:35:56;;;;;;;19.00;11.90;;;;;;;8.02;71.07;101224.44;104027;277;38594;-71
2023/05/14 00:38:30;;;;;;;17.30;11.50;;;;;;;7.98;71.12;101223.78;104048;277;38480;-71
2023/05/14 00:41:05;;;;;;;15.90;10.80;;;;;;;7.95;71.16;101221.21;104006;277;38458;-71
2023/05/14 00:43:39;;;;;;;16.70;10.50;;;;;;;7.94;71.09;101217.59;104027;277;38239;-70
2023/05/14 00:46:13;;;;;;;16.30;11.20;;;;;;;7.93;71.18;101217.41;103915;277;175365;-70
2023/05/14 00:48:49;;;;;;;16.10;10.40;;;;;;;7.94;71.60;101218.10;104022;277;38721;-71
2023/05/14 00:51:23;;;;;;;15.50;10.90;;;;;;;7.90;71.84;101222.33;104020;277;39231;-71
2023/05/14 00:53:58;;;;;;;17.50;11.10;;;;;;;7.86;71.74;101223.24;104015;277;38720;-70
2023/05/14 00:56:32;;;;;;;14.90;10.70;;;;;;;7.85;71.91;101226.73;103985;277;38741;-71
2023/05/14 00:59:09;;;;;;;16.70;10.80;;;;;;;7.82;71.84;101225.39;104018;277;38480;-72
2023/05/14 01:01:45;;;;;;;16.60;10.60;;;;;;;7.79;72.00;101227.34;104000;277;39270;-71
2023/05/14 01:04:22;;;;;;;19.00;10.80;;;;;;;7.77;71.94;101230.66;104012;277;39849;-70
2023/05/14 01:07:09;;;;;;;16.70;11.10;;;;;;;7.75;71.91;101231.04;103999;277;38936;-71
2023/05/14 01:09:50;;;;;;;18.30;11.40;;;;;;;7.72;72.17;101230.20;104016;277;39558;-68
2023/05/14 01:12:34;;;;;;;19.50;11.80;;;;;;;7.67;72.05;101225.39;104008;277;39820;-70
2023/05/14 01:15:15;;;;;;;16.70;11.40;;;;;;;7.61;72.26;101225.83;104036;276;38406;-72
2023/05/14 01:17:59;;;;;;;17.00;11.50;;;;;;;7.55;72.28;101221.73;104008;277;38818;-70
2023/05/14 01:20:33;;;;;;;19.00;11.10;;;;;;;7.49;72.41;101225.61;104066;277;38586;-70
2023/05/14 01:23:07;;;;;;;18.90;12.00;;;;;;;7.46;72.38;101221.48;104014;277;38615;-68
2023/05/14 01:25:43;;;;;;;16.60;11.80;;;;;;;7.46;72.43;101220.10;104027;277;38677;-70
2023/05/14 01:28:20;;;;;;;17.70;11.70;;;;;;;7.43;72.45;101216.14;103996;277;38345;-71
2023/05/14 01:31:00;;;;;;;18.50;12.40;;;;;;;7.38;72.44;101209.94;103984;277;39038;-71
2023/05/14 01:33:35;;;;;;;17.30;11.70;;;;;;;7.34;72.53;101208.59;104013;277;39710;-72
2023/05/14 01:36:10;;;;;;;17.00;12.10;;;;;;;7.31;72.73;101207.94;104013;277;39672;-70
2023/05/14 01:38:46;;;;;;;17.70;12.90;;;;;;;7.29;72.81;101205.02;103985;265;39999;-71
2023/05/14 01:41:20;;;;;;;17.60;13.20;;;;;;;7.28;73.00;101206.23;104034;277;38590;-70
2023/05/14 01:43:55;;;;;;;18.20;12.70;;;;;;;7.28;73.08;101205.02;104064;277;38461;-71
2023/05/14 01:46:34;;;;;;;19.70;13.80;;;;;;;7.21;73.20;101201.97;103988;277;38609;-70
2023/05/14 01:49:08;;;;;;;20.50;13.20;;;;;;;7.14;73.42;101203.61;104024;277;38343;-69
2023/05/14 01:51:42;;;;;;;18.90;14.70;;;;;;;7.07;73.47;101203.86;103967;277;38812;-70
2023/05/14 01:54:20;;;;;;;17.90;14.10;;;;;;;7.02;73.47;101204.60;103805;277;39608;-70
2023/05/14 01:57:00;;;;;;;19.60;15.20;;;;;;;7.03;73.66;101203.73;103972;277;39713;-71
2023/05/14 01:59:39;;;;;;;18.70;14.10;;;;;;;7.03;73.75;101201.64;104014;277;40023;-70
2023/05/14 02:02:42;;;;;;;17.50;13.70;;;;;;;7.02;73.91;101194.89;103981;277;38665;-70
2023/05/14 02:05:19;;;;;;;22.00;14.30;;;;;;;6.97;74.02;101198.58;103975;277;38391;-70
2023/05/14 02:07:54;;;;;;;20.00;15.10;;;;;;;6.93;73.90;101204.17;104090;277;38277;-70
2023/05/14 02:10:28;;;;;;;19.30;15.00;;;;;;;6.89;74.09;101204.39;103977;277;40155;-71
2023/05/14 02:13:05;;;;;;;17.20;13.50;;;;;;;6.84;74.24;101208.94;104018;277;38438;-70
2023/05/14 02:15:40;;;;;;;18.30;13.60;;;;;;;6.78;74.23;101208.30;103862;277;175481;-70
2023/05/14 02:18:17;;;;;;;19.30;14.20;;;;;;;6.76;74.31;101202.95;104031;276;38497;-70
2023/05/14 02:20:52;;;;;;;24.70;14.90;;;;;;;6.77;74.52;101200.16;104023;277;38230;-70
2023/05/14 02:23:26;;;;;;;20.20;14.00;;;;;;;6.77;74.57;101201.19;103989;277;38352;-70
2023/05/14 02:26:02;;;;;;;20.30;14.20;;;;;;;6.71;74.61;101203.15;104012;276;38225;-70
2023/05/14 02:28:36;;;;;;;19.70;14.30;;;;;;;6.69;74.73;101199.02;104035;277;38355;-72
2023/05/14 02:31:11;;;;;;;23.50;15.30;;;;;;;6.70;74.79;101195.20;104015;274;39668;-70
2023/05/14 02:33:45;;;;;;;19.80;15.50;;;;;;;6.71;74.87;101193.45;103378;265;921240;-69
2023/05/14 02:36:26;;;;;;;21.00;15.80;;;;;;;6.67;74.82;101192.09;104015;277;38475;-70
2023/05/14 02:39:05;;;;;;;21.10;14.70;;;;;;;6.63;74.85;101193.88;104012;277;39954;-70
2023/05/14 02:41:40;;;;;;;18.10;14.70;;;;;;;6.60;75.05;101195.29;104018;277;39634;-71
2023/05/14 02:44:15;;;;;;;20.80;14.70;;;;;;;6.56;75.16;101192.36;104046;277;38485;-72
2023/05/14 02:46:51;;;;;;;18.60;14.10;;;;;;;6.58;75.32;101191.83;104037;277;38464;-71
2023/05/14 02:49:29;;;;;;;20.50;14.10;;;;;;;6.59;75.52;101190.44;104075;277;38413;-72
2023/05/14 02:52:07;;;;;;;19.00;15.10;;;;;;;6.58;75.54;101187.15;104016;277;38341;-72
2023/05/14 02:54:41;;;;;;;18.80;14.30;;;;;;;6.54;75.58;101183.90;104006;277;38900;-69
2023/05/14 02:57:19;;;;;;;20.60;15.00;;;;;;;6.51;75.58;101187.03;104036;277;38454;-68
2023/05/14 02:59:56;;;;;;;19.10;14.80;;;;;;;6.48;75.71;101187.41;104008;276;38565;-68
2023/05/14 03:02:30;;;;;;;20.30;15.60;;;;;;;6.46;75.76;101186.02;104032;277;39051;-70
2023/05/14 03:05:05;;;;;;;20.90;15.40;;;;;;;6.47;75.92;101185.67;103998;277;38645;-71
2023/05/14 03:07:39;;;;;;;18.00;14.50;;;;;;;6.49;76.03;101187.73;104058;277;38504;-70
2023/05/14 03:10:14;;;;;;;23.40;16.30;;;;;;;6.48;75.92;101186.88;104034;277;38682;-70
2023/05/14 03:12:50;;;;;;;22.60;15.80;;;;;;;6.48;76.09;101185.15;103991;277;39030;-70
2023/05/14 03:15:24;;;;;;;27.80;16.10;;;;;;;6.46;76.08;101185.00;103383;277;906358;-72
2023/05/14 03:18:00;;;;;;;21.70;14.80;;;;;;;6.46;76.21;101187.94;103991;277;39640;-71
2023/05/14 03:20:34;;;;;;;19.70;14.30;;;;;;;6.46;76.15;101189.16;103960;277;39386;-71
2023/05/14 03:23:08;;;;;;;18.40;14.40;;;;;;;6.46;76.36;101188.98;104005;277;38297;-70
2023/05/14 03:25:42;;;;;;;18.10;14.50;;;;;;;6.51;76.50;101195.34;103975;277;38595;-69
2023/05/14 03:28:16;;;;;;;18.10;14.60;;;;;;;6.54;76.52;101197.40;104017;277;38459;-70
2023/05/14 03:30:55;;;;;;;20.20;15.00;;;;;;;6.60;76.63;101189.38;104057;276;40003;-71
2023/05/14 03:33:34;;;;;;;21.00;15.00;;;;;;;6.67;76.77;101190.36;103993;277;39981;-70
2023/05/14 03:36:11;;;;;;;20.00;15.10;;;;;;;6.75;76.97;101190.64;103987;277;38244;-71
2023/05/14 03:38:46;;;;;;;19.90;14.40;;;;;;;6.83;77.08;101192.13;103357;277;919392;-71
2023/05/14 03:41:23;;;;;;;19.50;14.70;;;;;;;7.00;77.24;101184.67;103884;277;39836;-72
2023/05/14 03:43:57;;;;;;;20.10;15.70;;;;;;;7.58;78.55;101185.91;104062;277;38231;-69
2023/05/14 03:46:34;;;;;;;19.80;14.70;;;;;;;8.55;79.57;101179.82;104047;277;38448;-69
2023/05/14 03:49:08;;;;;;;21.00;14.90;;;;;;;9.55;78.37;101176.91;104039;277;38826;-72
2023/05/14 03:51:42;;;;;;;19.40;15.50;;;;;;;10.44;76.02;101175.95;103661;277;420925;-70
2023/05/14 03:54:17;;;;;;;19.70;15.60;;;;;;;11.32;74.31;101178.52;103922;277;38237;-71
2023/05/14 03:56:51;;;;;;;23.00;16.50;;;;;;;12.22;71.06;101172.36;103878;277;38521;-72
2023/05/14 03:59:30;;;;;;;19.10;15.30;;;;;;;13.08;68.63;101168.05;103989;277;38759;-69
2023/05/14 04:02:08;;;;;;;20.40;15.70;;;;;;;13.92;65.57;101158.80;104002;277;38530;-69
2023/05/14 04:04:49;;;;;;;22.80;16.40;;;;;;;14.49;62.22;101156.85;104046;276;38265;-70
2023/05/14 04:07:33;;;;;;;23.50;16.50;;;;;;;14.61;59.87;101155.48;103974;277;39682;-69
2023/05/14 04:10:12;;;;;;;20.50;17.50;;;;;;;14.45;58.73;101157.35;104025;277;38931;-71
2023/05/14 04:12:53;;;;;;;19.60;17.20;;;;;;;14.17;58.41;101155.54;104020;277;38594;-71
2023/05/14 04:15:29;;;;;;;22.40;17.60;;;;;;;13.71;58.47;101157.54;104004;277;38307;-68
2023/05/14 04:18:08;;;;;;;23.30;18.80;;;;;;;13.35;59.13;101160.63;104069;277;39191;-70
2023/05/14 04:20:43;;;;;;;25.30;17.00;;;;;;;13.10;59.77;101159.77;104062;277;38306;-71
2023/05/14 04:23:18;;;;;;;22.00;17.70;;;;;;;12.92;60.29;101157.59;104096;277;39804;-71
2023/05/14 04:25:54;;;;;;;20.70;16.60;;;;;;;12.80;60.58;101153.79;104025;277;38753;-70
2023/05/14 04:28:29;;;;;;;27.90;17.00;;;;;;;12.78;60.71;101153.52;104066;277;38225;-71
2023/05/14 04:31:04;;;;;;;21.80;16.50;;;;;;;12.80;61.04;101156.95;104015;277;38670;-69
2023/05/14 04:33:38;;;;;;;20.70;15.20;;;;;;;12.79;61.04;101156.65;104035;277;38645;-71
2023/05/14 04:36:13;;;;;;;22.60;16.20;;;;;;;12.77;61.14;101152.52;104025;277;38625;-72
2023/05/14 04:38:47;;;;;;;21.10;16.10;;;;;;;12.75;61.16;101153.48;104085;277;38363;-70
2023/05/14 04:41:23;;;;;;;18.50;15.50;;;;;;;12.74;61.08;101150.16;104026;277;38383;-71
2023/05/14 04:44:07;;;;;;;19.60;15.20;;;;;;;12.73;61.22;101152.80;104050;277;38201;-70
2023/05/14 04:46:49;;;;;;;22.30;16.40;;;;;;;12.78;61.20;101156.14;104048;277;38561;-71
2023/05/14 04:49:23;;;;;;;19.90;15.70;;;;;;;12.88;61.30;101152.13;104062;277;39947;-71
2023/05/14 04:51:57;;;;;;;19.10;14.90;;;;;;;13.07;61.89;101154.41;103999;277;40400;-71
2023/05/14 04:54:31;;;;;;;20.80;15.40;;;;;;;13.69;63.50;101151.79;104030;277;38835;-70
2023/05/14 04:57:06;;;;;;;18.90;14.00;;;;;;;15.05;63.36;101148.48;104004;277;38394;-70
2023/05/14 04:59:42;;;;;;;18.00;15.30;;;;;;;16.58;60.23;101145.16;103843;267;38610;-70
2023/05/14 05:02:16;;;;;;;17.90;14.20;;;;;;;17.90;55.75;101136.67;103991;277;38279;-73
2023/05/14 05:04:52;;;;;;;17.80;13.50;;;;;;;19.00;52.42;101142.08;104036;277;38238;-71
2023/05/14 05:07:26;;;;;;;17.60;14.30;;;;;;;20.00;49.82;101142.05;103993;277;38953;-70
2023/05/14 05:10:09;;;;;;;17.00;13.40;;;;;;;20.89;46.80;101140.51;103959;277;174636;-72
2023/05/14 05:12:47;;;;;;;18.50;13.70;;;;;;;21.76;44.58;101139.00;103990;277;38307;-70
2023/05/14 05:15:23;;;;;;;17.20;14.30;;;;;;;22.62;42.56;101136.86;104052;277;39433;-72
2023/05/14 05:17:57;;;;;;;18.10;13.60;;;;;;;23.39;39.80;101136.58;104063;277;38984;-71
2023/05/14 05:20:31;;;;;;;17.50;13.80;;;;;;;23.89;38.67;101131.64;104107;277;38440;-72
2023/05/14 05:23:08;;;;;;;16.40;13.80;;;;;;;24.40;36.62;101127.77;104078;277;38407;-71
2023/05/14 05:25:42;;;;;;;16.60;13.80;;;;;;;24.94;36.38;101129.30;101885;277;3014098;-70
2023/05/14 05:28:16;;;;;;;18.60;13.10;;;;;;;25.46;34.59;101129.05;101841;277;3028191;-70
2023/05/14 05:30:51;;;;;;;14.50;12.80;;;;;;;25.71;33.78;101127.15;104022;277;39464;-72
2023/05/14 05:33:27;;;;;;;17.60;12.90;;;;;;;25.98;32.78;101127.95;104015;277;39501;-72
2023/05/14 05:36:03;;;;;;;14.00;12.50;;;;;;;26.23;32.36;101127.22;104031;277;39002;-72
2023/05/14 05:38:40;;;;;;;12.70;11.40;;;;;;;26.62;31.66;101126.86;103981;276;38350;-72
2023/05/14 05:41:18;;;;;;;12.70;11.40;;;;;;;27.02;30.57;101125.98;104012;277;39644;-72
2023/05/14 05:43:56;;;;;;;12.70;11.40;;;;;;;27.32;30.11;101130.84;104039;277;38231;-72
2023/05/14 05:46:37;;;;;;;15.10;11.60;;;;;;;27.69;29.34;101126.63;104032;277;38249;-72
2023/05/14 05:49:12;;;;;;;13.30;11.60;;;;;;;28.03;28.57;101128.61;104023;277;38793;-73
2023/05/14 05:51:47;;;;;;;12.90;11.50;;;;;;;28.29;28.28;101123.74;104026;277;38499;-72
2023/05/14 05:54:21;;;;;;;12.10;10.80;;;;;;;28.56;27.43;101127.83;104019;277;38828;-73
2023/05/14 05:57:00;;;;;;;12.40;10.60;;;;;;;28.67;27.14;101123.60;103850;277;39738;-73
2023/05/14 05:59:37;;;;;;;11.30;10.00;;;;;;;28.94;26.56;101123.38;104035;277;38484;-72
2023/05/14 06:02:13;;;;;;;12.70;9.90;;;;;;;29.25;26.78;101124.94;103980;277;38829;-73
2023/05/14 06:04:48;;;;;;;11.40;9.30;;;;;;;29.64;25.54;101121.92;103999;277;38469;-73
2023/05/14 06:07:24;;;;;;;11.00;9.40;;;;;;;29.73;24.75;101120.42;104059;277;38391;-73
2023/05/14 06:10:05;;;;;;;11.00;8.90;;;;;;;29.81;24.38;101117.79;104053;277;39685;-71
2023/05/14 06:12:40;;;;;;;11.50;8.80;;;;;;;30.19;24.20;101118.19;104024;276;40173;-73
2023/05/14 06:15:16;;;;;;;11.20;8.10;;;;;;;30.60;23.22;101115.92;103252;277;888085;-72
2023/05/14 06:17:55;;;;;;;9.00;8.00;;;;;;;30.97;22.87;101115.98;104045;277;38881;-72
2023/05/14 06:20:29;;;;;;;10.70;8.00;;;;;;;31.31;22.14;101119.48;104060;277;38451;-73
2023/05/14 06:23:07;;;;;;;12.30;8.60;;;;;;;31.29;22.00;101117.73;103997;277;38328;-72
2023/05/14 06:25:41;;;;;;;8.80;7.90;;;;;;;31.41;21.76;101119.30;103904;277;170996;-74
2023/05/14 06:28:16;;;;;;;8.40;7.30;;;;;;;31.36;21.54;101118.78;104031;277;38753;-73
2023/05/14 06:30:54;;;;;;;9.50;7.00;;;;;;;31.53;21.57;101116.30;104015;277;38514;-72
2023/05/14 06:33:30;;;;;;;9.90;7.00;;;;;;;31.78;21.52;101119.67;104079;277;38670;-73
2023/05/14 06:36:07;;;;;;;8.10;6.80;;;;;;;32.10;21.09;101118.23;104016;277;39411;-74
2023/05/14 06:38:41;;;;;;;11.00;7.30;;;;;;;32.20;21.05;101118.56;103866;277;38480;-72
2023/05/14 06:41:18;;;;;;;9.40;6.70;;;;;;;32.61;20.78;101113.52;103927;277;38438;-74
2023/05/14 06:43:51;;;;;;;8.50;6.90;;;;;;;32.91;20.14;101108.29;103921;277;38307;-73
2023/05/14 06:46:31;;;;;;;9.20;6.70;;;;;;;33.22;19.86;101109.77;103859;277;39683;-72
2023/05/14 06:49:06;;;;;;;7.70;5.80;;;;;;;33.55;20.07;101109.96;103898;277;39712;-72
2023/05/14 06:51:42;;;;;;;8.60;5.70;;;;;;;33.65;18.68;101110.03;103903;277;38262;-73
2023/05/14 06:54:16;;;;;;;11.20;6.30;;;;;;;33.71;18.32;101108.34;103929;277;38440;-74
2023/05/14 06:56:57;;;;;;;7.30;6.40;;;;;;;33.81;18.77;101101.93;103910;277;38530;-74
2023/05/14 06:59:33;;;;;;;9.20;6.10;;;;;;;33.89;18.16;101104.20;103940;277;39405;-72
2023/05/14 07:02:08;;;;;;;7.70;5.70;;;;;;;33.68;18.13;101105.13;103935;277;38794;-73
2023/05/14 07:04:42;;;;;;;7.40;6.00;;;;;;;33.68;18.17;101098.66;103871;277;38438;-72
2023/05/14 07:07:23;;;;;;;8.40;5.60;;;;;;;33.64;18.16;101097.45;103907;277;38352;-72
2023/05/14 07:10:00;;;;;;;9.00;6.00;;;;;;;33.62;17.90;101097.14;103871;277;38601;-74
2023/05/14 07:12:38;;;;;;;9.30;5.10;;;;;;;33.71;17.73;101091.35;103867;277;39454;-77
2023/05/14 07:15:16;;;;;;;8.60;4.90;;;;;;;33.82;17.52;101094.64;103952;277;38473;-75
2023/05/14 07:17:50;;;;;;;;;;;;;;;33.79;17.16;101096.48;103950;277;39432;-73
2023/05/14 07:20:25;;;;;;;6.70;5.00;;;;;;;33.69;17.13;101090.02;103896;277;38424;-73
2023/05/14 07:22:59;;;;;;;7.90;5.00;;;;;;;33.74;16.87;101090.87;103816;277;39416;-73
2023/05/14 07:25:33;;;;;;;5.60;4.60;;;;;;;33.88;17.37;101092.83;103895;277;38432;-73
2023/05/14 07:28:09;;;;;;;6.60;4.50;;;;;;;34.11;16.58;101093.95;103874;277;38303;-73
2023/05/14 07:30:43;;;;;;;4.70;4.10;;;;;;;34.11;16.48;101091.36;103876;277;38635;-71
2023/05/14 07:33:27;;;;;;;6.50;3.70;;;;;;;34.22;15.85;101088.70;103838;277;38634;-73
2023/05/14 07:36:02;;;;;;;4.20;3.40;;;;;;;33.89;15.84;101087.24;103907;277;38508;-73
2023/05/14 07:38:37;;;;;;;6.70;4.00;;;;;;;33.84;16.70;101087.56;103974;277;38598;-74
2023/05/14 07:41:11;;;;;;;6.40;3.60;;;;;;;34.05;16.07;101091.96;103797;277;41298;-75
2023/05/14 07:43:46;;;;;;;6.30;4.20;;;;;;;34.04;16.16;101088.02;103990;277;40165;-74
2023/05/14 07:46:22;;;;;;;6.50;3.40;;;;;;;34.00;15.92;101083.05;104050;277;38289;-74
2023/05/14 07:48:59;;;;;;;5.70;3.60;;;;;;;33.87;15.78;101084.66;104052;276;39331;-74
2023/05/14 07:51:33;;;;;;;5.30;3.80;;;;;;;33.87;16.25;101078.52;104018;277;38520;-71
2023/05/14 07:54:07;;;;;;;5.20;3.60;;;;;;;34.06;16.26;101074.10;104092;277;39434;-72
2023/05/14 07:56:41;;;;;;;5.50;3.70;;;;;;;34.17;16.29;101076.33;104054;277;38388;-73
2023/05/14 07:59:16;;;;;;;4.60;3.30;;;;;;;34.26;16.21;101072.52;104029;277;38765;-76
2023/05/14 08:01:52;;;;;;;5.40;3.80;;;;;;;34.46;15.78;101070.50;104022;277;39318;-74
2023/05/14 08:04:29;;;;;;;5.40;3.30;;;;;;;34.44;15.90;101066.05;104047;277;39000;-76
2023/05/14 08:07:07;;;;;;;4.00;3.20;;;;;;;34.51;15.60;101064.41;103828;277;38672;-75
2023/05/14 08:09:44;;;;;;;5.20;3.50;;;;;;;34.64;15.33;101061.02;103851;279;39409;-73
2023/05/14 08:12:22;;;;;;;5.60;3.50;;;;;;;34.67;15.36;101059.17;104029;277;39933;-74
2023/05/14 08:15:02;;;;;;;4.90;3.20;;;;;;;34.74;15.26;101056.08;104039;277;38398;-71
2023/05/14 08:17:44;;;;;;;5.30;3.30;;;;;;;34.81;15.60;101049.21;104040;277;38507;-71
2023/05/14 08:20:25;;;;;;;4.20;3.00;;;;;;;35.04;15.21;101052.23;103846;277;38242;-71
2023/05/14 08:23:02;;;;;;;5.10;3.40;;;;;;;35.26;15.58;101049.27;103933;277;170776;-74
2023/05/14 08:25:37;;;;;;;7.60;3.70;;;;;;;35.45;14.86;101045.75;104007;277;38898;-72
2023/05/14 08:28:16;;;;;;;4.80;3.50;;;;;;;35.52;14.93;101039.63;103981;277;38362;-73
2023/05/14 08:30:54;;;;;;;6.60;3.80;;;;;;;35.59;14.53;101039.94;103812;277;39364;-73
2023/05/14 08:33:28;;;;;;;5.00;3.70;;;;;;;35.79;14.81;101038.33;104076;277;38375;-73
2023/05/14 08:36:02;;;;;;;4.20;2.90;;;;;;;35.77;14.19;101038.32;104007;277;38331;-72
2023/05/14 08:38:36;;;;;;;6.30;4.00;;;;;;;35.90;14.61;101033.02;104031;277;38210;-73
2023/05/14 08:41:15;;;;;;;3.90;3.60;;;;;;;36.08;14.54;101029.87;104019;276;38366;-75
2023/05/14 08:44:00;;;;;;;5.20;3.30;;;;;;;36.26;14.08;101026.50;104080;277;38529;-75
2023/05/14 08:46:38;;;;;;;5.50;3.00;;;;;;;36.31;14.36;101027.50;103956;277;173874;-75
2023/05/14 08:49:29;;;;;;;4.00;2.80;;;;;;;36.11;13.48;101024.33;104060;277;38269;-72
2023/05/14 08:52:09;;;;;;;3.90;3.10;;;;;;;35.62;13.79;101028.70;104032;277;38491;-73
2023/05/14 08:54:45;;;;;;;6.60;3.00;;;;;;;35.48;14.26;101021.14;104099;277;38234;-74
2023/05/14 08:57:25;;;;;;;4.20;3.10;;;;;;;35.63;14.23;101018.91;104075;277;38390;-74
2023/05/14 09:00:03;;;;;;;5.80;3.30;;;;;;;35.57;14.30;101018.65;104047;277;38371;-74
2023/05/14 09:02:40;;;;;;;5.50;2.90;;;;;;;35.62;14.62;101019.80;103929;266;38429;-73
2023/05/14 09:05:18;;;;;;;4.10;3.20;;;;;;;35.65;14.56;101016.78;104041;277;38274;-75
2023/05/14 09:07:54;;;;;;;6.90;3.10;;;;;;;35.70;14.72;101019.26;103868;277;38389;-73
2023/05/14 09:10:31;;;;;;;5.60;2.60;;;;;;;35.55;14.64;101015.45;104021;277;39416;-73
2023/05/14 09:13:09;;;;;;;5.20;2.90;;;;;;;35.30;15.09;101012.48;103849;277;39675;-73
2023/05/14 09:15:54;;;;;;;5.00;2.70;;;;;;;34.84;15.45;101009.11;104068;277;38569;-74
2023/05/14 09:18:31;;;;;;;7.30;2.60;;;;;;;34.33;15.20;101005.61;103936;277;39396;-75
2023/05/14 09:21:06;;;;;;;6.00;2.90;;;;;;;33.65;15.52;100999.11;104068;276;38405;-74
2023/05/14 09:23:46;;;;;;;3.30;2.80;;;;;;;33.19;16.60;100995.64;104008;277;38273;-74
2023/05/14 09:26:26;;;;;;;6.90;2.80;;;;;;;32.67;16.54;101002.71;104012;277;39156;-76
2023/05/14 09:29:00;;;;;;;4.00;2.50;;;;;;;32.02;16.89;101001.02;103995;277;39118;-74
2023/05/14 09:31:36;;;;;;;3.40;2.50;;;;;;;31.40;17.15;101005.18;104061;277;38506;-73
2023/05/14 09:34:10;;;;;;;4.10;2.40;;;;;;;31.05;17.97;101002.26;104029;277;38240;-74
2023/05/14 09:36:52;;;;;;;4.60;2.50;;;;;;;30.71;18.19;101007.42;104038;277;38302;-75
2023/05/14 09:39:27;;;;;;;4.00;2.60;;;;;;;30.28;17.79;101005.53;104043;277;39065;-74
2023/05/14 09:42:01;;;;;;;4.30;2.50;;;;;;;29.82;18.11;100996.04;104038;277;38436;-74
2023/05/14 09:44:36;;;;;;;3.90;2.40;;;;;;;29.48;18.27;100992.27;104010;277;38267;-74
2023/05/14 09:47:13;;;;;;;4.80;2.50;;;;;;;29.16;18.80;100996.77;104011;277;38689;-73
2023/05/14 09:49:52;;;;;;;5.20;2.40;;;;;;;28.94;19.27;100993.68;104005;277;39956;-73
2023/05/14 09:52:28;;;;;;;4.40;2.50;;;;;;;28.75;19.16;100986.00;103989;277;38289;-73
2023/05/14 09:55:09;;;;;;;4.20;2.00;;;;;;;28.61;20.29;100988.17;104053;277;39592;-73
2023/05/14 09:57:49;;;;;;;2.40;2.10;;;;;;;28.62;19.89;100988.38;104061;277;38219;-73
2023/05/14 10:00:23;;;;;;;3.70;2.10;;;;;;;28.53;19.80;100984.17;104015;277;38842;-74
2023/05/14 10:02:58;;;;;;;4.50;2.40;;;;;;;28.36;19.49;100986.61;104053;277;39419;-73
2023/05/14 10:05:32;;;;;;;2.90;2.00;;;;;;;27.97;19.31;100980.56;103792;277;39435;-74
2023/05/14 10:08:20;;;;;;;7.60;2.40;;;;;;;27.82;20.11;100981.05;104032;277;38504;-74
2023/05/14 10:10:59;;;;;;;2.80;2.00;;;;;;;27.81;20.13;100976.87;103903;277;171583;-74
2023/05/14 10:13:34;;;;;;;;;;;;;;;27.84;20.02;100973.13;104031;277;38248;-73
2023/05/14 10:16:15;;;;;;;3.40;2.20;;;;;;;27.79;20.17;100969.89;103986;277;38762;-73
2023/05/14 10:18:56;;;;;;;3.50;2.10;;;;;;;27.67;20.06;100974.67;104056;277;39221;-74
2023/05/14 10:21:30;;;;;;;4.50;2.20;;;;;;;27.53;20.70;100965.86;103974;277;38891;-73
2023/05/14 10:24:06;;;;;;;5.10;2.50;;;;;;;27.42;20.12;100959.34;104034;277;39374;-72
2023/05/14 10:26:44;;;;;;;7.00;2.60;;;;;;;27.26;20.53;100966.40;104081;277;39390;-74
2023/05/14 10:29:20;;;;;;;4.30;2.00;;;;;;;27.16;20.71;100962.20;104051;277;38413;-75
2023/05/14 10:31:56;;;;;;;11.20;2.50;;;;;;;27.08;20.61;100954.71;104083;277;38255;-74
2023/05/14 10:34:43;;;;;;;5.50;2.60;;;;;;;26.97;20.78;100956.70;104058;277;40007;-74
2023/05/14 10:37:22;;;;;;;5.10;2.30;;;;;;;26.87;20.39;100960.73;104013;277;38383;-72
2023/05/14 10:40:00;;;;;;;3.40;2.10;;;;;;;26.77;20.81;100956.66;104086;277;38537;-70
2023/05/14 10:42:39;;;;;;;4.70;2.70;;;;;;;26.65;20.66;100954.23;104060;277;39800;-72
2023/05/14 10:45:18;;;;;;;4.90;2.50;;;;;;;26.44;20.82;100952.45;103882;277;38366;-71
2023/05/14 10:47:58;;;;;;;3.50;2.20;;;;;;;26.30;21.13;100956.89;103772;277;171615;-74
2023/05/14 10:50:35;;;;;;;6.70;2.40;;;;;;;26.21;20.67;100955.20;104001;277;39667;-72
2023/05/14 10:53:09;;;;;;;3.80;2.20;;;;;;;25.99;20.75;100946.18;103806;277;39798;-74
2023/05/14 10:55:52;;;;;;;2.60;2.20;;;;;;;25.65;20.93;100942.95;104014;277;38522;-73
2023/05/14 10:58:32;;;;;;;5.20;2.50;;;;;;;25.32;21.39;100939.92;104077;277;38270;-72
2023/05/14 11:01:12;;;;;;;3.60;2.20;;;;;;;25.19;21.73;100937.45;103846;277;38404;-72
2023/05/14 11:03:49;;;;;;;3.60;2.30;;;;;;;25.20;21.81;100938.47;103888;277;187658;-72
2023/05/14 11:06:25;;;;;;;5.50;2.40;;;;;;;25.19;21.66;100934.26;104037;277;38536;-72
2023/05/14 11:09:01;;;;;;;3.80;2.30;;;;;;;25.13;22.21;100929.79;104023;277;39539;-73
2023/05/14 11:11:39;;;;;;;5.50;2.30;;;;;;;25.15;21.98;100920.33;104074;277;38281;-75
2023/05/14 11:14:19;;;;;;;4.10;2.20;;;;;;;25.06;21.95;100910.30;104094;277;38425;-75
2023/05/14 11:17:00;;;;;;;4.60;2.30;;;;;;;24.95;22.28;100906.45;104057;277;38730;-75
2023/05/14 11:19:52;;;;;;;5.40;2.50;;;;;;;24.83;22.52;100900.01;104082;277;38235;-71
2023/05/14 11:22:46;;;;;;;4.30;2.40;;;;;;;24.75;22.57;100891.68;103866;277;38233;-72
2023/05/14 11:25:24;;;;;;;3.10;2.00;;;;;;;24.71;22.86;100881.97;104141;277;38348;-73
2023/05/14 11:28:00;;;;;;;2.40;1.90;;;;;;;24.72;23.21;100880.84;103223;278;894346;-72
2023/05/14 11:30:43;;;;;;;5.00;2.30;;;;;;;24.74;23.28;100882.63;103919;277;38476;-73
2023/05/14 11:33:24;;;;;;;3.40;2.10;;;;;;;24.72;22.95;100880.85;103871;277;39700;-73
2023/05/14 11:36:03;;;;;;;4.00;2.00;;;;;;;24.67;23.21;100871.11;103833;277;175244;-72
2023/05/14 11:38:46;;;;;;;4.60;2.00;;;;;;;24.66;22.97;100859.77;103915;277;38517;-73
2023/05/14 11:41:26;;;;;;;4.10;2.10;;;;;;;24.61;22.99;100867.02;104065;276;38525;-73
2023/05/14 11:44:14;;;;;;;3.70;2.10;;;;;;;24.51;22.61;100863.47;104121;276;38224;-73
2023/05/14 11:47:00;;;;;;;4.30;1.90;;;;;;;24.39;22.92;100856.62;103508;276;894439;-74
2023/05/14 11:52:44;;;;;;;6.90;2.40;;;;;;;24.34;23.04;100824.56;103746;276;422377;-75
2023/05/14 11:55:24;;;;;;;5.30;2.30;;;;;;;24.25;23.10;100827.17;103855;276;39514;-73
2023/05/14 11:57:59;;;;;;;4.50;2.20;;;;;;;24.16;23.23;100828.52;104044;276;38219;-73
2023/05/14 12:00:36;;;;;;;4.70;2.20;;;;;;;24.07;23.45;100826.62;104083;276;39788;-73
2023/05/14 12:03:11;;;;;;;4.00;1.90;;;;;;;23.99;23.40;100821.50;104071;276;38868;-73
2023/05/14 12:05:59;;;;;;;2.90;2.10;;;;;;;23.98;23.20;100816.95;104042;276;39662;-72
2023/05/14 12:08:34;;;;;;;4.00;2.10;;;;;;;23.92;22.86;100809.03;104112;276;38307;-73